createdAt,value
2022-12-23T00:00:25.361Z,3.99
2022-12-23T00:02:53.638Z,4.23
2022-12-23T00:05:21.419Z,4.31
2022-12-23T00:07:49.007Z,4.35
2022-12-23T00:10:17.649Z,4.40
2022-12-23T00:12:45.379Z,4.31
2022-12-23T00:15:13.832Z,4.35
2022-12-23T00:17:43.480Z,4.18
2022-12-23T00:20:15.150Z,4.30
2022-12-23T00:22:43.353Z,4.07
2022-12-23T00:25:12.339Z,4.15
2022-12-23T00:27:40.092Z,4.32
2022-12-23T00:30:10.791Z,4.30
2022-12-23T00:32:39.035Z,4.15
2022-12-23T00:35:06.811Z,4.10
2022-12-23T00:37:34.750Z,4.45
2022-12-23T00:40:06.918Z,3.88
2022-12-23T00:42:35.055Z,3.66
2022-12-23T00:45:02.792Z,3.91
2022-12-23T00:47:30.415Z,4.17
2022-12-23T00:50:02.446Z,3.97
2022-12-23T00:52:30.113Z,3.93
2022-12-23T00:54:58.046Z,4.01
2022-12-23T00:57:25.622Z,3.79
2022-12-23T00:59:54.261Z,3.74
2022-12-23T01:02:22.362Z,3.72
2022-12-23T01:04:50.363Z,3.68
2022-12-23T01:07:18.077Z,3.91
2022-12-23T01:09:46.241Z,3.91
2022-12-23T01:12:14.060Z,3.90
2022-12-23T01:14:41.813Z,3.88
2022-12-23T01:17:09.885Z,3.88
2022-12-23T01:19:39.927Z,3.77
2022-12-23T01:22:07.628Z,3.79
2022-12-23T01:24:35.584Z,3.94
2022-12-23T01:27:03.393Z,4.00
2022-12-23T01:29:31.229Z,3.94
2022-12-23T01:31:59.338Z,4.01
2022-12-23T01:34:32.503Z,4.07
2022-12-23T01:37:04.966Z,4.25
2022-12-23T01:39:32.828Z,4.46
2022-12-23T01:42:00.466Z,4.45
2022-12-23T01:44:50.139Z,4.50
2022-12-23T01:47:37.874Z,4.37
2022-12-23T01:50:19.700Z,5.47
2022-12-23T01:53:07.392Z,5.69
2022-12-23T01:55:44.124Z,5.70
2022-12-23T01:58:14.967Z,5.71
2022-12-23T02:00:43.057Z,5.77
2022-12-23T02:03:11.726Z,5.89
2022-12-23T02:05:39.641Z,5.88
2022-12-23T02:08:07.356Z,5.90
2022-12-23T02:10:50.567Z,6.10
2022-12-23T02:13:53.523Z,5.77
2022-12-23T02:16:21.604Z,5.87
2022-12-23T02:18:54.917Z,5.91
2022-12-23T02:21:51.409Z,5.98
2022-12-23T02:25:11.740Z,5.91
2022-12-23T02:27:45.465Z,5.89
2022-12-23T02:30:38.816Z,6.07
2022-12-23T02:33:30.006Z,6.09
2022-12-23T02:36:21.524Z,5.77
2022-12-23T02:39:00.337Z,5.77
2022-12-23T02:41:30.696Z,5.90
2022-12-23T02:44:36.374Z,6.03
2022-12-23T02:47:19.009Z,5.77
2022-12-23T02:49:52.396Z,5.96
2022-12-23T02:52:21.245Z,6.19
2022-12-23T02:54:52.741Z,6.04
2022-12-23T02:57:21.342Z,6.03
2022-12-23T02:59:50.790Z,6.29
2022-12-23T03:02:19.227Z,6.27
2022-12-23T03:04:47.356Z,6.20
2022-12-23T03:07:19.580Z,6.44
2022-12-23T03:09:58.316Z,6.39
2022-12-23T03:12:38.389Z,6.33
2022-12-23T03:15:35.576Z,6.17
2022-12-23T03:18:03.625Z,5.96
2022-12-23T03:20:44.069Z,5.87
2022-12-23T03:23:20.556Z,6.02
2022-12-23T03:25:53.573Z,6.14
2022-12-23T03:28:31.494Z,6.02
2022-12-23T03:31:00.706Z,6.06
2022-12-23T03:33:40.083Z,5.97
2022-12-23T03:36:17.305Z,5.88
2022-12-23T03:38:45.783Z,4.64
2022-12-23T03:41:17.048Z,4.47
2022-12-23T03:44:04.392Z,4.40
2022-12-23T03:46:40.629Z,4.40
2022-12-23T03:49:23.939Z,4.52
2022-12-23T03:51:56.766Z,4.36
2022-12-23T03:54:28.713Z,4.29
2022-12-23T03:57:04.943Z,4.47
2022-12-23T03:59:51.164Z,4.50
2022-12-23T04:02:26.514Z,4.48
2022-12-23T04:05:22.003Z,4.68
2022-12-23T04:08:12.008Z,4.74
2022-12-23T04:10:40.114Z,4.57
2022-12-23T04:13:08.074Z,4.52
2022-12-23T04:15:39.958Z,4.47
2022-12-23T04:18:09.274Z,4.51
2022-12-23T04:20:37.844Z,4.56
2022-12-23T04:23:05.546Z,4.55
2022-12-23T04:25:33.494Z,4.80
2022-12-23T04:28:02.292Z,4.81
2022-12-23T04:30:34.353Z,4.84
2022-12-23T04:33:03.111Z,4.24
2022-12-23T04:35:31.215Z,3.84
2022-12-23T04:37:58.965Z,3.98
2022-12-23T04:40:27.279Z,4.05
2022-12-23T04:42:54.970Z,4.07
2022-12-23T04:45:22.562Z,4.04
2022-12-23T04:47:50.509Z,3.78
2022-12-23T04:50:23.577Z,3.56
2022-12-23T04:52:51.767Z,3.75
2022-12-23T04:55:19.348Z,3.82
2022-12-23T04:57:47.302Z,3.80
2022-12-23T05:00:16.181Z,3.61
2022-12-23T05:02:43.991Z,3.73
2022-12-23T05:05:11.853Z,3.50
2022-12-23T05:07:39.936Z,3.57
2022-12-23T05:10:09.890Z,3.53
2022-12-23T05:12:38.517Z,3.41
2022-12-23T05:15:07.910Z,3.49
2022-12-23T05:17:35.578Z,3.49
2022-12-23T05:20:03.470Z,3.31
2022-12-23T05:22:31.647Z,3.99
2022-12-23T05:24:59.241Z,4.36
2022-12-23T05:27:26.799Z,4.35
2022-12-23T05:30:04.191Z,3.60
2022-12-23T05:32:32.128Z,3.33
2022-12-23T05:35:00.021Z,3.54
2022-12-23T05:37:27.655Z,3.72
2022-12-23T05:39:57.005Z,3.59
2022-12-23T05:42:25.131Z,3.32
2022-12-23T05:44:52.753Z,3.78
2022-12-23T05:47:20.500Z,4.57
2022-12-23T05:49:51.343Z,5.13
2022-12-23T05:52:19.057Z,4.84
2022-12-23T05:54:46.851Z,4.98
2022-12-23T05:57:16.866Z,4.99
2022-12-23T05:59:44.783Z,5.31
2022-12-23T06:02:12.626Z,5.10
2022-12-23T06:04:40.742Z,5.11
2022-12-23T06:07:08.388Z,4.97
2022-12-23T06:09:36.168Z,5.23
2022-12-23T06:12:04.339Z,5.07
2022-12-23T06:14:31.961Z,5.35
2022-12-23T06:16:59.750Z,5.23
2022-12-23T06:19:27.847Z,5.28
2022-12-23T06:21:55.691Z,4.91
2022-12-23T06:24:23.426Z,4.73
2022-12-23T06:26:56.786Z,4.33
2022-12-23T06:29:25.031Z,4.30
2022-12-23T06:31:54.898Z,4.32
2022-12-23T06:34:22.614Z,4.42
2022-12-23T06:36:50.371Z,4.74
2022-12-23T06:39:18.406Z,4.57
2022-12-23T06:41:46.514Z,4.73
2022-12-23T06:44:14.101Z,4.82
2022-12-23T06:46:41.994Z,4.60
2022-12-23T06:49:13.473Z,4.71
2022-12-23T06:51:41.861Z,5.08
2022-12-23T06:54:11.133Z,5.01
2022-12-23T06:56:38.975Z,5.26
2022-12-23T06:59:06.834Z,4.98
2022-12-23T07:01:34.857Z,5.09
2022-12-23T07:04:02.717Z,5.09
2022-12-23T07:06:30.668Z,5.29
2022-12-23T07:08:58.629Z,5.38
2022-12-23T07:11:26.319Z,5.22
2022-12-23T07:13:54.322Z,5.36
2022-12-23T07:16:22.053Z,5.42
2022-12-23T07:18:49.725Z,5.67
2022-12-23T07:21:24.858Z,5.35
2022-12-23T07:23:56.206Z,5.21
2022-12-23T07:26:24.148Z,4.66
2022-12-23T07:28:51.941Z,4.91
2022-12-23T07:31:19.672Z,3.98
2022-12-23T07:33:47.688Z,4.04
2022-12-23T07:36:15.469Z,3.93
2022-12-23T07:38:43.203Z,4.16
2022-12-23T07:41:11.163Z,3.88
2022-12-23T07:43:38.927Z,4.46
2022-12-23T07:46:07.923Z,4.03
2022-12-23T07:48:36.125Z,4.03
2022-12-23T07:51:06.788Z,4.01
2022-12-23T07:53:34.341Z,4.44
2022-12-23T07:56:08.710Z,4.74
2022-12-23T07:58:36.410Z,4.67
2022-12-23T08:01:09.204Z,4.92
2022-12-23T08:03:37.409Z,4.67
2022-12-23T08:06:07.742Z,4.85
2022-12-23T08:08:37.147Z,4.89
2022-12-23T08:11:10.127Z,4.63
2022-12-23T08:13:39.847Z,4.46
2022-12-23T08:16:11.589Z,4.63
2022-12-23T08:18:40.876Z,4.86
2022-12-23T08:21:15.081Z,4.82
2022-12-23T08:23:43.409Z,4.82
2022-12-23T08:26:14.330Z,4.68
2022-12-23T08:28:43.382Z,4.90
2022-12-23T08:31:37.566Z,4.73
2022-12-23T08:34:05.165Z,4.71
2022-12-23T08:36:34.852Z,5.23
2022-12-23T08:39:07.312Z,4.94
2022-12-23T08:41:43.987Z,5.22
2022-12-23T08:44:12.055Z,5.04
2022-12-23T08:46:40.657Z,4.39
2022-12-23T08:49:09.008Z,4.70
2022-12-23T08:51:37.182Z,4.74
2022-12-23T08:54:05.485Z,4.81
2022-12-23T08:56:35.800Z,4.87
2022-12-23T08:59:03.949Z,4.70
2022-12-23T09:01:34.319Z,5.05
2022-12-23T09:04:06.208Z,5.01
2022-12-23T09:06:39.610Z,5.12
2022-12-23T09:09:09.266Z,5.05
2022-12-23T09:11:39.071Z,4.85
2022-12-23T09:14:07.080Z,4.80
2022-12-23T09:16:34.795Z,4.79
2022-12-23T09:19:03.439Z,4.96
2022-12-23T09:21:31.118Z,4.89
2022-12-23T09:23:58.838Z,4.91
2022-12-23T09:26:30.244Z,4.75
2022-12-23T09:28:58.538Z,4.92
2022-12-23T09:31:30.800Z,4.82
2022-12-23T09:34:04.354Z,5.18
2022-12-23T09:36:32.466Z,4.74
2022-12-23T09:39:00.111Z,5.10
2022-12-23T09:41:39.626Z,4.95
2022-12-23T09:44:13.238Z,5.29
2022-12-23T09:46:50.760Z,4.98
2022-12-23T09:49:20.327Z,5.43
2022-12-23T09:51:53.079Z,5.03
2022-12-23T09:54:27.042Z,5.46
2022-12-23T09:57:02.761Z,5.22
2022-12-23T09:59:52.890Z,5.29
2022-12-23T10:02:51.581Z,4.78
2022-12-23T10:05:49.982Z,4.87
2022-12-23T10:08:30.970Z,4.29
2022-12-23T10:11:12.023Z,4.46
2022-12-23T10:13:49.781Z,4.45
2022-12-23T10:16:24.221Z,4.50
2022-12-23T10:19:04.667Z,4.54
2022-12-23T10:21:32.556Z,4.34
2022-12-23T10:24:05.477Z,4.39
2022-12-23T10:26:46.538Z,4.26
2022-12-23T10:29:20.157Z,4.34
2022-12-23T10:32:00.164Z,4.56
2022-12-23T10:34:52.428Z,4.44
2022-12-23T10:37:27.521Z,4.69
2022-12-23T10:40:11.862Z,4.47
2022-12-23T10:42:45.854Z,4.70
2022-12-23T10:45:34.883Z,4.97
2022-12-23T10:48:13.904Z,4.89
2022-12-23T10:50:50.170Z,4.94
2022-12-23T10:53:40.875Z,4.92
2022-12-23T10:56:09.291Z,4.93
2022-12-23T10:58:40.996Z,5.10
2022-12-23T11:01:21.791Z,4.86
2022-12-23T11:04:09.437Z,4.82
2022-12-23T11:07:18.059Z,4.87
2022-12-23T11:09:47.677Z,4.93
2022-12-23T11:12:15.795Z,5.36
2022-12-23T11:14:54.860Z,5.06
2022-12-23T11:17:30.262Z,4.90
2022-12-23T11:20:19.443Z,4.91
2022-12-23T11:22:54.077Z,4.61
2022-12-23T11:25:24.970Z,4.96
2022-12-23T11:28:12.757Z,4.87
2022-12-23T11:30:55.778Z,4.73
2022-12-23T11:33:26.794Z,4.80
2022-12-23T11:36:19.865Z,4.86
2022-12-23T11:39:03.170Z,4.62
2022-12-23T11:41:37.787Z,4.80
2022-12-23T11:44:27.130Z,4.81
2022-12-23T11:46:55.124Z,4.91
2022-12-23T11:49:22.594Z,4.83
2022-12-23T11:52:05.573Z,5.82
2022-12-23T11:54:34.189Z,5.33
2022-12-23T11:57:03.948Z,5.08
2022-12-23T11:59:42.501Z,5.07
2022-12-23T12:02:18.508Z,4.89
2022-12-23T12:04:56.395Z,5.00
2022-12-23T12:07:25.464Z,5.12
2022-12-23T12:09:57.226Z,4.89
2022-12-23T12:12:26.064Z,5.06
2022-12-23T12:14:55.859Z,5.02
2022-12-23T12:17:31.223Z,4.90
2022-12-23T12:20:18.011Z,5.30
2022-12-23T12:22:51.164Z,5.36
2022-12-23T12:25:21.029Z,5.39
2022-12-23T12:28:00.703Z,5.55
2022-12-23T12:30:36.702Z,5.30
2022-12-23T12:33:28.002Z,5.47
2022-12-23T12:36:26.408Z,5.77
2022-12-23T12:38:55.162Z,5.48
2022-12-23T12:41:29.041Z,6.30
2022-12-23T12:44:19.735Z,6.81
2022-12-23T12:47:15.960Z,6.80
2022-12-23T12:49:57.368Z,6.99
2022-12-23T12:52:27.079Z,6.94
2022-12-23T12:54:59.249Z,7.04
2022-12-23T12:57:27.887Z,6.56
2022-12-23T13:00:05.275Z,5.83
2022-12-23T13:02:40.449Z,5.59
2022-12-23T13:05:16.266Z,5.84
2022-12-23T13:08:22.963Z,5.66
2022-12-23T13:11:06.026Z,6.07
2022-12-23T13:13:40.889Z,6.31
2022-12-23T13:16:37.119Z,6.33
2022-12-23T13:19:33.746Z,6.21
2022-12-23T13:22:24.395Z,6.26
2022-12-23T13:24:55.582Z,5.84
2022-12-23T13:27:35.513Z,5.83
2022-12-23T13:30:17.863Z,5.69
2022-12-23T13:33:18.441Z,5.97
2022-12-23T13:36:07.556Z,6.24
2022-12-23T13:38:44.254Z,6.11
2022-12-23T13:41:33.045Z,5.81
2022-12-23T13:44:02.807Z,5.98
2022-12-23T13:46:48.572Z,6.24
2022-12-23T13:49:22.030Z,6.35
2022-12-23T13:51:56.163Z,6.61
2022-12-23T13:54:32.635Z,6.43
2022-12-23T13:57:25.066Z,6.55
2022-12-23T14:00:19.767Z,6.57
2022-12-23T14:03:10.597Z,6.51
2022-12-23T14:05:48.053Z,6.53
2022-12-23T14:08:21.667Z,6.64
2022-12-23T14:10:52.291Z,6.27
2022-12-23T14:13:22.250Z,6.32
2022-12-23T14:16:03.180Z,6.41
2022-12-23T14:18:52.742Z,6.51
2022-12-23T14:21:29.618Z,7.13
2022-12-23T14:24:20.074Z,6.69
2022-12-23T14:27:25.873Z,6.79
2022-12-23T14:30:10.352Z,6.61
2022-12-23T14:32:50.996Z,6.13
2022-12-23T14:35:28.283Z,6.36
2022-12-23T14:38:08.190Z,6.28
2022-12-23T14:40:39.294Z,6.23
2022-12-23T14:43:24.364Z,6.27
2022-12-23T14:46:00.356Z,6.41
2022-12-23T14:48:34.091Z,6.31
2022-12-23T14:51:08.263Z,6.40
2022-12-23T14:53:38.131Z,6.34
2022-12-23T14:56:22.551Z,7.00
2022-12-23T14:59:01.721Z,7.19
2022-12-23T15:01:33.896Z,6.41
2022-12-23T15:04:17.416Z,6.37
2022-12-23T15:06:48.228Z,6.40
2022-12-23T15:09:28.217Z,6.33
2022-12-23T15:11:58.740Z,6.68
2022-12-23T15:14:35.904Z,6.33
2022-12-23T15:17:25.373Z,6.20
2022-12-23T15:19:54.216Z,5.99
2022-12-23T15:22:28.451Z,5.74
2022-12-23T15:24:58.179Z,5.70
2022-12-23T15:27:35.665Z,5.64
2022-12-23T15:30:19.187Z,5.53
2022-12-23T15:32:48.854Z,5.68
2022-12-23T15:35:24.177Z,5.63
2022-12-23T15:37:52.327Z,5.73
2022-12-23T15:40:33.801Z,5.77
2022-12-23T15:43:14.697Z,5.81
2022-12-23T15:45:45.925Z,5.76
2022-12-23T15:48:26.094Z,5.86
2022-12-23T15:51:08.555Z,6.66
2022-12-23T15:53:41.051Z,6.94
2022-12-23T15:56:22.687Z,6.89
2022-12-23T15:58:54.308Z,6.77
2022-12-23T16:01:39.506Z,5.91
2022-12-23T16:04:07.900Z,5.66
2022-12-23T16:06:36.387Z,6.40
2022-12-23T16:09:16.699Z,5.98
2022-12-23T16:11:51.489Z,5.83
2022-12-23T16:14:31.631Z,6.09
2022-12-23T16:17:09.314Z,6.60
2022-12-23T16:19:54.746Z,6.94
2022-12-23T16:22:30.645Z,7.04
2022-12-23T16:25:19.884Z,5.95
2022-12-23T16:27:54.733Z,5.77
2022-12-23T16:30:37.433Z,5.79
2022-12-23T16:33:42.878Z,5.56
2022-12-23T16:36:31.995Z,5.70
2022-12-23T16:39:09.460Z,6.21
2022-12-23T16:41:37.491Z,5.26
2022-12-23T16:44:05.634Z,5.23
2022-12-23T16:46:37.228Z,5.49
2022-12-23T16:49:07.416Z,5.25
2022-12-23T16:51:38.057Z,5.54
2022-12-23T16:54:06.065Z,5.43
2022-12-23T16:56:39.861Z,5.40
2022-12-23T16:59:07.987Z,5.61
2022-12-23T17:01:42.297Z,6.37
2022-12-23T17:04:10.419Z,5.83
2022-12-23T17:06:38.598Z,5.59
2022-12-23T17:09:09.837Z,5.62
2022-12-23T17:11:48.891Z,5.53
2022-12-23T17:14:25.553Z,5.74
2022-12-23T17:16:53.614Z,5.74
2022-12-23T17:19:27.986Z,5.74
2022-12-23T17:22:02.441Z,5.80
2022-12-23T17:24:36.226Z,5.76
2022-12-23T17:27:12.764Z,5.68
2022-12-23T17:29:41.835Z,5.67
2022-12-23T17:32:11.879Z,5.63
2022-12-23T17:34:39.638Z,5.57
2022-12-23T17:37:15.693Z,5.92
2022-12-23T17:42:36.137Z,5.38
2022-12-23T17:45:27.405Z,5.54
2022-12-23T17:47:55.377Z,5.55
2022-12-23T17:50:24.148Z,5.47
2022-12-23T17:52:56.859Z,5.46
2022-12-23T17:55:32.074Z,5.27
2022-12-23T17:57:59.771Z,5.24
2022-12-23T18:00:34.595Z,5.44
2022-12-23T18:03:07.069Z,4.98
2022-12-23T18:05:35.824Z,4.98
2022-12-23T18:08:04.465Z,4.76
2022-12-23T18:10:36.711Z,5.06
2022-12-23T18:13:12.888Z,4.68
2022-12-23T18:15:43.383Z,4.55
2022-12-23T18:18:22.005Z,4.30
2022-12-23T18:20:55.906Z,4.47
2022-12-23T18:23:28.989Z,4.53
2022-12-23T18:25:57.378Z,4.72
2022-12-23T18:28:25.673Z,4.98
2022-12-23T18:30:55.919Z,5.19
2022-12-23T18:33:23.753Z,5.08
2022-12-23T18:35:51.870Z,5.13
2022-12-23T18:38:19.527Z,5.36
2022-12-23T18:40:47.339Z,5.16
2022-12-23T18:43:20.118Z,4.93
2022-12-23T18:45:52.873Z,5.19
2022-12-23T18:48:21.937Z,5.09
2022-12-23T18:50:49.835Z,5.10
2022-12-23T18:53:24.350Z,5.20
2022-12-23T18:55:54.081Z,4.98
2022-12-23T18:58:22.609Z,4.94
2022-12-23T19:00:51.345Z,4.74
2022-12-23T19:03:29.990Z,4.69
2022-12-23T19:05:59.160Z,4.66
2022-12-23T19:08:27.995Z,4.58
2022-12-23T19:10:55.976Z,4.58
2022-12-23T19:13:23.792Z,4.43
2022-12-23T19:15:52.177Z,4.35
2022-12-23T19:18:22.279Z,4.39
2022-12-23T19:20:50.101Z,4.39
2022-12-23T19:23:19.618Z,4.35
2022-12-23T19:25:54.861Z,4.34
2022-12-23T19:28:24.065Z,4.38
2022-12-23T19:30:52.229Z,4.42
2022-12-23T19:33:19.941Z,4.38
2022-12-23T19:35:48.020Z,4.40
2022-12-23T19:38:15.678Z,4.40
2022-12-23T19:40:44.230Z,4.45
2022-12-23T19:43:12.262Z,4.44
2022-12-23T19:45:39.990Z,4.20
2022-12-23T19:48:07.717Z,3.86
2022-12-23T19:50:35.757Z,3.61
2022-12-23T19:53:03.412Z,3.45
2022-12-23T19:55:33.397Z,3.98
2022-12-23T19:58:01.302Z,4.25
2022-12-23T20:00:28.955Z,4.35
2022-12-23T20:02:59.177Z,4.34
2022-12-23T20:05:27.190Z,4.43
2022-12-23T20:07:55.401Z,4.41
2022-12-23T20:10:24.319Z,4.25
2022-12-23T20:12:52.062Z,4.21
2022-12-23T20:15:20.046Z,4.37
2022-12-23T20:17:48.276Z,4.55
2022-12-23T20:20:18.098Z,4.56
2022-12-23T20:22:46.051Z,4.43
2022-12-23T20:25:13.959Z,4.36
2022-12-23T20:27:41.797Z,4.26
2022-12-23T20:30:11.846Z,4.18
2022-12-23T20:32:41.069Z,4.23
2022-12-23T20:35:08.870Z,4.29
2022-12-23T20:37:36.635Z,4.42
2022-12-23T20:40:06.162Z,4.48
2022-12-23T20:42:34.655Z,4.56
2022-12-23T20:45:02.361Z,4.46
2022-12-23T20:47:30.338Z,4.45
2022-12-23T20:49:59.118Z,4.48
2022-12-23T20:52:26.881Z,4.49
2022-12-23T20:54:54.836Z,4.51
2022-12-23T20:57:23.519Z,4.55
2022-12-23T20:59:53.053Z,4.45
2022-12-23T21:02:20.968Z,4.37
2022-12-23T21:04:48.615Z,4.59
2022-12-23T21:07:16.437Z,4.47
2022-12-23T21:09:47.392Z,4.47
2022-12-23T21:12:15.144Z,4.46
2022-12-23T21:14:43.123Z,4.45
2022-12-23T21:17:11.111Z,4.43
2022-12-23T21:19:40.087Z,4.55
2022-12-23T21:22:08.097Z,4.60
2022-12-23T21:24:36.032Z,4.69
2022-12-23T21:27:04.776Z,4.68
2022-12-23T21:29:32.993Z,4.77
2022-12-23T21:32:01.586Z,4.79
2022-12-23T21:34:29.252Z,4.85
2022-12-23T21:36:57.021Z,5.14
2022-12-23T21:39:25.067Z,4.93
2022-12-23T21:41:52.737Z,4.94
2022-12-23T21:44:23.205Z,4.97
2022-12-23T21:46:51.575Z,4.99
2022-12-23T21:49:19.851Z,5.04
2022-12-23T21:51:47.668Z,5.12
2022-12-23T21:54:15.553Z,5.16
2022-12-23T21:56:45.568Z,5.15
2022-12-23T21:59:14.379Z,5.16
2022-12-23T22:01:42.889Z,5.22
2022-12-23T22:04:11.550Z,5.23
2022-12-23T22:06:43.743Z,5.30
2022-12-23T22:09:20.433Z,5.31
2022-12-23T22:11:48.395Z,5.35
2022-12-23T22:14:18.589Z,5.35
2022-12-23T22:16:49.015Z,5.34
2022-12-23T22:19:17.226Z,5.40
2022-12-23T22:21:45.139Z,5.42
2022-12-23T22:24:12.777Z,5.50
2022-12-23T22:26:40.776Z,5.21
2022-12-23T22:29:08.540Z,5.30
2022-12-23T22:31:49.862Z,5.40
2022-12-23T22:34:19.896Z,5.54
2022-12-23T22:36:49.499Z,5.61
2022-12-23T22:39:20.975Z,5.61
2022-12-23T22:41:52.542Z,5.49
2022-12-23T22:44:21.099Z,5.58
2022-12-23T22:46:48.909Z,5.57
2022-12-23T22:49:17.369Z,5.55
2022-12-23T22:51:45.509Z,5.69
2022-12-23T22:54:13.273Z,5.69
2022-12-23T22:56:41.050Z,5.77
2022-12-23T22:59:22.094Z,5.94
2022-12-23T23:01:50.563Z,5.77
2022-12-23T23:04:19.263Z,5.69
2022-12-23T23:06:47.201Z,5.78
2022-12-23T23:09:17.175Z,5.72
2022-12-23T23:11:45.674Z,5.49
2022-12-23T23:14:13.656Z,5.61
2022-12-23T23:16:42.357Z,5.52
2022-12-23T23:19:11.458Z,5.52
2022-12-23T23:21:39.261Z,5.51
2022-12-23T23:24:07.276Z,5.75
2022-12-23T23:26:35.288Z,5.77
2022-12-23T23:29:03.167Z,5.75
2022-12-23T23:31:42.007Z,5.79
2022-12-23T23:34:11.653Z,5.87
2022-12-23T23:36:39.611Z,5.97
2022-12-23T23:39:07.502Z,5.86
2022-12-23T23:41:35.473Z,5.78
2022-12-23T23:44:03.265Z,5.94
2022-12-23T23:46:30.935Z,5.84
2022-12-23T23:48:59.122Z,5.94
2022-12-23T23:51:26.713Z,6.10
2022-12-23T23:53:54.549Z,5.98
2022-12-23T23:56:25.835Z,5.89
2022-12-23T23:58:54.961Z,5.85
